Time;durP1;ratioP1;P1;durP2;ratioP2;P2;SDS_P1;SDS_P2;PMS_P1;PMS_P2;Temp;Humidity;BMP_temperature;BMP_pressure;BME280_temperature;BME280_humidity;BME280_pressure;Samples;Min_cycle;Max_cycle;Signal;HPM_P1;HPM_P2
2023/10/13 00:00:47;;;;;;;0.70;0.30;;;20.30;68.30;;;;;;5064379;28;20200;-85
2023/10/13 00:03:18;;;;;;;2.40;0.60;;;20.30;65.60;;;;;;5064377;28;20589;-84
2023/10/13 00:05:52;;;;;;;2.17;0.40;;;20.30;66.30;;;;;;5072573;28;20210;-84
2023/10/13 00:08:25;;;;;;;0.43;0.30;;;20.50;67.00;;;;;;5060780;28;20548;-84
2023/10/13 00:10:59;;;;;;;0.90;0.40;;;20.60;64.50;;;;;;5053560;28;20231;-85
2023/10/13 00:13:40;;;;;;;0.98;0.40;;;20.50;64.00;;;;;;5053125;28;20263;-84
2023/10/13 00:16:17;;;;;;;0.30;0.30;;;20.60;66.40;;;;;;5053371;28;20610;-86
2023/10/13 00:18:48;;;;;;;0.35;0.30;;;20.70;63.00;;;;;;5064696;28;20283;-85
2023/10/13 00:21:31;;;;;;;0.47;0.30;;;20.60;62.70;;;;;;5072860;28;20196;-85
2023/10/13 00:24:05;;;;;;;0.80;0.40;;;20.70;60.60;;;;;;5073843;28;20571;-86
2023/10/13 00:26:38;;;;;;;2.58;0.45;;;20.70;60.40;;;;;;5072073;28;20191;-86
2023/10/13 00:29:16;;;;;;;5.13;0.45;;;20.50;61.60;;;;;;5067261;28;20188;-85
2023/10/13 00:31:48;;;;;;;0.77;0.50;;;20.70;60.20;;;;;;5073543;28;20211;-85
2023/10/13 00:34:25;;;;;;;0.40;0.40;;;20.80;57.60;;;;;;5068154;28;20354;-86
2023/10/13 00:39:44;;;;;;;0.68;0.40;;;20.90;58.30;;;;;;5052773;28;20671;-86
2023/10/13 00:42:23;;;;;;;0.40;0.40;;;21.00;58.30;;;;;;5071218;28;20655;-86
2023/10/13 00:44:54;;;;;;;0.55;0.40;;;20.90;57.30;;;;;;5073048;28;20196;-85
2023/10/13 00:47:37;;;;;;;1.02;0.50;;;21.00;57.70;;;;;;5075361;28;20238;-81
2023/10/13 00:50:11;;;;;;;0.68;0.30;;;21.20;55.50;;;;;;5097350;28;20184;-84
2023/10/13 00:52:46;;;;;;;1.15;0.38;;;21.20;55.80;;;;;;5076048;28;20188;-86
2023/10/13 00:55:22;;;;;;;1.25;0.50;;;21.20;54.60;;;;;;5072491;28;20480;-84
2023/10/13 00:57:54;;;;;;;0.70;0.57;;;21.20;56.00;;;;;;5059841;28;20593;-85
2023/10/13 01:00:28;;;;;;;0.45;0.38;;;21.30;54.90;;;;;;5072569;28;20270;-85
2023/10/13 01:03:05;;;;;;;1.95;0.40;;;21.30;56.10;;;;;;5072254;28;20223;-85
2023/10/13 01:05:37;;;;;;;0.70;0.32;;;21.40;53.20;;;;;;5052618;28;20214;-86
2023/10/13 01:08:10;;;;;;;0.50;0.35;;;21.70;53.50;;;;;;5063282;28;20192;-85
2023/10/13 01:10:45;;;;;;;0.93;0.43;;;21.90;52.80;;;;;;5068008;28;20220;-85
2023/10/13 01:13:15;;;;;;;3.17;0.40;;;22.20;53.00;;;;;;5052258;28;20207;-85
2023/10/13 01:15:46;;;;;;;1.63;0.40;;;22.40;51.30;;;;;;5054666;28;20207;-86
2023/10/13 01:18:16;;;;;;;1.92;0.40;;;22.50;51.60;;;;;;5052401;28;20563;-85
2023/10/13 01:20:52;;;;;;;1.08;0.50;;;22.40;50.40;;;;;;5052389;28;20231;-87
2023/10/13 01:23:28;;;;;;;0.70;0.30;;;22.50;51.20;;;;;;5052326;28;20228;-86
2023/10/13 01:26:04;;;;;;;1.05;0.40;;;22.70;51.00;;;;;;5056697;28;20241;-87
2023/10/13 01:28:44;;;;;;;0.43;0.30;;;22.80;50.20;;;;;;5074320;28;20203;-86
2023/10/13 01:31:25;;;;;;;0.73;0.32;;;22.90;49.50;;;;;;5055788;28;20272;-85
2023/10/13 01:33:55;;;;;;;3.20;0.30;;;23.10;49.60;;;;;;5067088;28;20191;-87
2023/10/13 01:36:35;;;;;;;1.08;0.40;;;23.30;50.40;;;;;;5072417;28;20203;-87
2023/10/13 01:39:06;;;;;;;0.93;0.38;;;23.30;47.30;;;;;;5056962;28;20626;-87
2023/10/13 01:41:38;;;;;;;0.20;0.20;;;23.40;46.80;;;;;;5055925;28;20207;-88
2023/10/13 01:44:11;;;;;;;0.75;0.20;;;23.40;48.00;;;;;;5071942;28;20226;-88
2023/10/13 01:46:47;;;;;;;0.35;0.17;;;23.50;47.40;;;;;;5072182;28;20303;-88
2023/10/13 01:49:16;;;;;;;3.65;0.20;;;23.50;47.80;;;;;;5081156;28;20203;-88
2023/10/13 01:51:48;;;;;;;1.08;0.40;;;23.60;48.30;;;;;;5086001;28;20184;-88
2023/10/13 01:54:21;;;;;;;0.65;0.40;;;23.40;46.10;;;;;;5054947;28;20201;-88
2023/10/13 01:56:51;;;;;;;2.47;0.60;;;23.40;45.70;;;;;;5055819;28;20200;-87
2023/10/13 01:59:22;;;;;;;2.20;0.70;;;23.50;45.30;;;;;;5066831;28;20656;-87
2023/10/13 02:01:55;;;;;;;1.40;0.50;;;23.50;45.60;;;;;;5070177;28;20196;-87
2023/10/13 02:04:25;;;;;;;1.05;0.43;;;23.50;45.20;;;;;;5051487;28;20250;-87
2023/10/13 02:06:56;;;;;;;2.58;0.55;;;23.70;45.90;;;;;;5067084;28;20206;-84
2023/10/13 02:09:29;;;;;;;1.88;0.60;;;23.70;44.50;;;;;;5071315;28;20207;-84
2023/10/13 02:12:00;;;;;;;0.93;0.35;;;23.60;45.00;;;;;;5070916;28;20714;-85
2023/10/13 02:14:29;;;;;;;2.33;0.50;;;23.80;44.10;;;;;;5071276;28;20680;-85
2023/10/13 02:19:45;;;;;;;1.42;0.80;;;24.10;42.30;;;;;;5070537;28;20208;-87
2023/10/13 02:22:25;;;;;;;1.23;0.30;;;24.10;43.90;;;;;;5077696;28;20196;-87
2023/10/13 02:25:01;;;;;;;1.45;0.70;;;24.10;43.10;;;;;;5075688;28;20556;-88
2023/10/13 02:27:40;;;;;;;1.95;0.50;;;24.20;42.20;;;;;;5078058;28;20195;-87
2023/10/13 02:30:13;;;;;;;0.50;0.30;;;24.30;41.30;;;;;;5069017;28;20198;-87
2023/10/13 02:32:44;;;;;;;0.98;0.50;;;24.40;42.40;;;;;;5079036;28;20176;-87
2023/10/13 02:35:17;;;;;;;0.90;0.50;;;24.40;42.60;;;;;;5075072;28;20228;-87
2023/10/13 02:37:54;;;;;;;0.43;0.40;;;24.80;42.70;;;;;;5076648;28;20217;-86
2023/10/13 02:40:27;;;;;;;1.65;0.30;;;24.90;42.10;;;;;;5083130;28;20192;-88
2023/10/13 02:42:56;;;;;;;2.55;0.52;;;24.90;40.40;;;;;;5073757;28;20232;-87
2023/10/13 02:45:27;;;;;;;2.30;0.47;;;24.90;40.20;;;;;;5055559;28;20192;-87
2023/10/13 02:48:11;;;;;;;0.52;0.50;;;24.70;39.90;;;;;;5060039;28;20188;-87
2023/10/13 02:50:47;;;;;;;2.65;0.50;;;24.60;40.80;;;;;;5064536;28;20188;-87
2023/10/13 02:53:18;;;;;;;0.10;0.10;;;24.70;40.30;;;;;;5082741;28;20188;-84
2023/10/13 02:56:05;;;;;;;4.18;0.70;;;25.10;41.30;;;;;;5087340;28;20207;-86
2023/10/13 02:58:45;;;;;;;1.15;0.50;;;25.50;40.70;;;;;;5087903;28;20627;-86
2023/10/13 03:01:26;;;;;;;1.95;0.55;;;25.60;40.30;;;;;;5071371;28;20663;-87
2023/10/13 03:03:58;;;;;;;0.75;0.40;;;25.80;39.80;;;;;;5060034;28;20286;-89
2023/10/13 03:06:34;;;;;;;1.60;0.40;;;26.00;40.20;;;;;;5062493;28;20184;-86
2023/10/13 03:09:14;;;;;;;1.02;0.40;;;26.10;40.10;;;;;;5070143;28;20184;-87
2023/10/13 03:11:50;;;;;;;0.20;0.20;;;26.10;40.60;;;;;;5071125;28;20299;-86
2023/10/13 03:14:34;;;;;;;0.70;0.30;;;26.00;39.90;;;;;;5072211;28;20235;-87
2023/10/13 03:17:06;;;;;;;0.70;0.35;;;26.10;39.30;;;;;;5054642;28;20201;-86
2023/10/13 03:19:38;;;;;;;0.77;0.20;;;26.20;39.70;;;;;;5070636;28;20325;-86
2023/10/13 03:22:11;;;;;;;0.65;0.30;;;26.50;39.80;;;;;;5072581;28;20192;-86
2023/10/13 03:24:45;;;;;;;3.38;0.60;;;26.10;39.60;;;;;;5075851;28;20635;-87
2023/10/13 03:27:23;;;;;;;5.30;2.13;;;25.80;51.20;;;;;;5075545;28;20238;-90
2023/10/13 03:29:54;;;;;;;1.75;0.60;;;25.50;52.50;;;;;;5064241;28;20213;-87
2023/10/13 03:32:26;;;;;;;1.27;0.45;;;25.20;53.10;;;;;;5069792;28;20211;-87
2023/10/13 03:35:11;;;;;;;1.80;0.32;;;25.30;55.00;;;;;;5070206;28;20224;-87
2023/10/13 03:37:42;;;;;;;4.07;0.50;;;25.20;54.30;;;;;;5074900;28;20196;-86
2023/10/13 03:40:34;;;;;;;0.30;0.30;;;25.50;54.20;;;;;;5060966;28;20204;-86
2023/10/13 03:43:09;;;;;;;1.30;0.38;;;25.20;53.80;;;;;;5059443;28;20567;-86
2023/10/13 03:45:42;;;;;;;1.10;0.47;;;25.40;53.70;;;;;;5073075;28;20716;-86
2023/10/13 03:48:28;;;;;;;0.88;0.47;;;25.60;55.30;;;;;;5071524;28;20192;-88
2023/10/13 03:51:06;;;;;;;1.75;0.47;;;25.50;56.00;;;;;;5054557;28;20283;-87
2023/10/13 03:53:52;;;;;;;2.17;0.57;;;25.40;56.40;;;;;;5057361;28;20197;-86
2023/10/13 03:56:38;;;;;;;1.67;0.40;;;25.20;56.80;;;;;;5095548;28;20281;-87
2023/10/13 03:59:18;;;;;;;1.60;0.50;;;25.10;56.90;;;;;;5057400;28;20199;-87
2023/10/13 04:01:58;;;;;;;1.27;0.40;;;25.00;57.30;;;;;;5073752;28;20691;-85
2023/10/13 04:04:48;;;;;;;0.63;0.43;;;24.80;56.60;;;;;;5094329;28;20228;-85
2023/10/13 04:16:02;;;;;;;0.57;0.40;;;24.50;57.40;;;;;;5058596;28;20706;-85
2023/10/13 04:18:49;;;;;;;0.90;0.30;;;24.30;58.20;;;;;;5058984;28;20301;-85
2023/10/13 04:29:51;;;;;;;1.55;0.40;;;24.40;56.50;;;;;;5060470;28;20197;-84
2023/10/13 04:32:28;;;;;;;1.05;0.30;;;24.10;57.30;;;;;;5059780;28;20196;-85
2023/10/13 04:35:08;;;;;;;0.50;0.30;;;24.10;58.60;;;;;;5075739;28;20625;-85
2023/10/13 04:37:50;;;;;;;0.95;0.40;;;24.40;57.70;;;;;;5073483;28;20577;-85
2023/10/13 04:40:24;;;;;;;1.60;0.55;;;24.20;58.80;;;;;;5091849;28;20203;-86
2023/10/13 04:43:04;;;;;;;1.92;0.35;;;24.30;58.90;;;;;;5093939;28;20303;-85
2023/10/13 04:45:48;;;;;;;3.42;0.50;;;24.30;59.40;;;;;;5066801;28;20223;-84
2023/10/13 04:48:29;;;;;;;3.22;0.50;;;24.40;59.70;;;;;;5066054;28;20253;-83
2023/10/13 04:54:11;;;;;;;2.95;0.50;;;24.40;59.90;;;;;;5073404;28;20199;-87
2023/10/13 05:01:16;;;;;;;1.85;0.40;;;24.20;59.40;;;;;;5081412;28;20576;-87
2023/10/13 05:44:55;;;;;;;1.33;0.20;;;24.70;56.90;;;;;;5039553;28;20212;-87
2023/10/13 05:47:47;;;;;;;0.70;0.30;;;25.10;56.70;;;;;;5063969;28;20199;-87
2023/10/13 06:29:46;;;;;;;0.47;0.30;;;24.80;58.80;;;;;;5068923;28;20718;-82
2023/10/13 06:32:17;;;;;;;1.05;0.40;;;25.20;58.10;;;;;;5056547;28;20643;-83
2023/10/13 06:34:48;;;;;;;2.58;0.50;;;25.60;58.10;;;;;;5061146;28;20270;-81
2023/10/13 06:37:25;;;;;;;1.15;0.50;;;25.80;57.60;;;;;;5071588;28;20685;-81
2023/10/13 06:39:56;;;;;;;2.03;0.55;;;25.70;58.00;;;;;;5066785;28;20200;-80
2023/10/13 06:42:28;;;;;;;0.30;0.30;;;26.60;57.00;;;;;;5071052;28;20242;-82
2023/10/13 06:45:08;;;;;;;0.73;0.30;;;26.90;55.70;;;;;;5070764;28;20220;-82
2023/10/13 06:47:42;;;;;;;0.50;0.40;;;27.10;54.70;;;;;;5070556;28;20192;-81
2023/10/13 06:50:19;;;;;;;2.15;0.40;;;27.00;54.10;;;;;;5070384;28;20195;-81
2023/10/13 06:52:50;;;;;;;1.90;0.30;;;26.80;54.10;;;;;;5053965;28;20201;-82
2023/10/13 06:55:24;;;;;;;2.60;0.43;;;26.70;55.30;;;;;;5063412;28;20254;-81
2023/10/13 06:57:59;;;;;;;1.27;0.35;;;26.20;55.90;;;;;;5062375;28;20246;-80
2023/10/13 07:00:34;;;;;;;1.02;0.30;;;25.40;56.80;;;;;;5065763;28;20203;-80
2023/10/13 07:03:09;;;;;;;1.17;0.40;;;24.80;57.60;;;;;;5072264;28;20208;-82
2023/10/13 07:05:41;;;;;;;1.27;0.40;;;24.30;58.90;;;;;;5068415;28;20729;-81
2023/10/13 07:08:14;;;;;;;2.47;0.40;;;23.80;60.40;;;;;;5070881;28;20192;-82
2023/10/13 07:11:01;;;;;;;0.50;0.35;;;23.50;62.00;;;;;;5056973;28;20216;-83
2023/10/13 07:13:36;;;;;;;0.85;0.40;;;23.40;63.40;;;;;;5076288;28;20262;-83
2023/10/13 07:16:12;;;;;;;0.68;0.40;;;23.10;64.20;;;;;;5075108;28;20215;-83
2023/10/13 07:18:49;;;;;;;0.98;0.40;;;22.90;65.00;;;;;;5061528;28;20196;-81
2023/10/13 07:21:24;;;;;;;2.90;0.40;;;22.80;65.30;;;;;;5075093;28;20195;-82
2023/10/13 07:24:08;;;;;;;0.65;0.40;;;22.70;65.20;;;;;;5067543;28;20212;-82
2023/10/13 07:26:42;;;;;;;1.05;0.50;;;22.60;65.90;;;;;;5053258;28;20589;-82
2023/10/13 07:29:14;;;;;;;0.85;0.30;;;22.50;66.70;;;;;;5068013;28;20192;-83
2023/10/13 07:31:46;;;;;;;0.60;0.45;;;22.50;66.20;;;;;;5054335;28;20544;-82
2023/10/13 07:34:26;;;;;;;1.05;0.60;;;22.30;67.30;;;;;;5060638;28;20204;-83
2023/10/13 07:36:59;;;;;;;1.40;0.80;;;22.20;68.50;;;;;;5054682;28;20615;-81
2023/10/13 07:39:33;;;;;;;0.40;0.28;;;22.20;68.10;;;;;;5055919;28;20196;-82
2023/10/13 07:42:15;;;;;;;0.70;0.30;;;22.10;69.20;;;;;;5060347;28;20196;-82
2023/10/13 07:44:48;;;;;;;1.25;0.50;;;22.00;70.40;;;;;;5075174;28;20242;-83
2023/10/13 07:47:20;;;;;;;0.65;0.32;;;21.90;71.70;;;;;;5091684;28;20662;-83
2023/10/13 07:49:51;;;;;;;2.17;0.45;;;21.90;72.30;;;;;;5073888;28;20561;-82
2023/10/13 07:55:14;;;;;;;0.47;0.40;;;21.60;75.80;;;;;;5073493;28;20200;-81
2023/10/13 07:57:55;;;;;;;1.88;0.50;;;21.50;76.40;;;;;;5055325;28;20680;-82
2023/10/13 08:00:46;;;;;;;1.65;0.50;;;21.40;78.20;;;;;;5058598;28;20196;-83
2023/10/13 08:03:35;;;;;;;2.17;0.88;;;21.40;79.80;;;;;;5077961;28;20607;-82
2023/10/13 08:06:19;;;;;;;2.13;0.70;;;21.40;81.10;;;;;;5073143;28;20192;-82
2023/10/13 08:08:59;;;;;;;2.85;0.60;;;21.30;82.60;;;;;;5053246;28;20189;-82
2023/10/13 08:11:34;;;;;;;0.47;0.40;;;21.30;83.30;;;;;;5067535;28;20251;-83
2023/10/13 08:14:22;;;;;;;1.73;0.63;;;21.20;84.80;;;;;;5057951;28;20200;-82
2023/10/13 08:16:59;;;;;;;1.65;0.70;;;21.20;86.00;;;;;;5056333;28;20203;-82
2023/10/13 08:19:39;;;;;;;2.47;0.70;;;21.20;87.30;;;;;;5060967;28;20191;-83
2023/10/13 08:22:25;;;;;;;1.92;0.90;;;21.20;87.80;;;;;;5072937;28;20198;-83
2023/10/13 08:28:04;;;;;;;1.98;0.70;;;21.10;89.90;;;;;;5092708;28;20201;-82
2023/10/13 08:30:52;;;;;;;1.23;0.60;;;21.10;90.50;;;;;;5074029;28;20283;-82
2023/10/13 08:33:27;;;;;;;2.25;0.70;;;21.00;90.90;;;;;;5060440;28;20199;-83
2023/10/13 08:38:55;;;;;;;1.58;0.60;;;20.90;91.30;;;;;;5044774;28;20207;-83
2023/10/13 08:41:53;;;;;;;1.95;0.80;;;20.90;91.80;;;;;;5056062;28;20200;-81
2023/10/13 08:44:34;;;;;;;2.47;0.70;;;20.90;91.70;;;;;;5067360;28;20591;-81
2023/10/13 08:47:16;;;;;;;1.10;0.75;;;20.80;92.00;;;;;;5075767;28;20286;-83
2023/10/13 08:49:51;;;;;;;1.52;0.80;;;20.80;92.50;;;;;;5060454;28;20201;-81
2023/10/13 08:55:39;;;;;;;1.23;0.85;;;20.70;93.50;;;;;;5075599;28;20202;-84
2023/10/13 08:58:13;;;;;;;6.97;3.63;;;20.60;94.40;;;;;;5056515;28;20204;-83
2023/10/13 09:01:11;;;;;;;2.22;1.90;;;20.60;94.20;;;;;;5056041;28;20279;-82
2023/10/13 09:03:42;;;;;;;6.80;3.97;;;20.60;93.60;;;;;;5060658;28;20216;-83
2023/10/13 09:06:19;;;;;;;3.00;2.40;;;20.60;92.50;;;;;;5063102;28;20203;-83
2023/10/13 09:09:05;;;;;;;3.53;2.30;;;20.60;92.70;;;;;;5071575;28;20195;-83
2023/10/13 09:17:38;;;;;;;5.20;2.38;;;20.70;90.90;;;;;;5109295;27;20362;-82
2023/10/13 09:20:42;;;;;;;19.73;7.20;;;20.70;87.60;;;;;;5086849;28;20207;-83
2023/10/13 09:23:24;;;;;;;6.30;2.95;;;20.60;85.70;;;;;;5073605;28;20204;-84
2023/10/13 09:25:58;;;;;;;5.82;3.10;;;20.50;82.70;;;;;;5074182;28;20575;-85
2023/10/13 09:28:36;;;;;;;4.55;2.20;;;20.60;82.50;;;;;;5075220;28;20200;-85
2023/10/13 09:31:09;;;;;;;4.55;1.85;;;20.60;81.20;;;;;;5077562;28;20192;-85
2023/10/13 09:33:50;;;;;;;4.55;1.90;;;20.70;80.10;;;;;;5090621;28;20195;-85
2023/10/13 09:36:22;;;;;;;7.38;3.08;;;20.80;80.40;;;;;;5091818;28;20287;-84
2023/10/13 09:39:12;;;;;;;4.47;2.22;;;20.70;79.70;;;;;;5080969;28;20211;-89
2023/10/13 09:41:47;;;;;;;13.50;4.53;;;20.80;79.70;;;;;;5092384;28;20191;-85
2023/10/13 09:44:24;;;;;;;5.70;3.00;;;20.80;79.40;;;;;;5092732;28;20586;-84
2023/10/13 09:46:59;;;;;;;5.75;2.63;;;20.90;78.90;;;;;;5094718;28;20226;-84
2023/10/13 09:49:45;;;;;;;4.28;1.70;;;20.80;78.80;;;;;;5091426;28;20194;-84
2023/10/13 09:52:27;;;;;;;10.02;3.35;;;20.70;79.00;;;;;;5090740;28;20195;-84
2023/10/13 09:55:12;;;;;;;5.40;2.33;;;20.80;79.10;;;;;;5092520;28;20203;-86
2023/10/13 09:57:57;;;;;;;6.07;3.40;;;20.70;78.80;;;;;;5093694;28;20192;-85
2023/10/13 10:00:46;;;;;;;7.57;3.55;;;20.60;79.50;;;;;;5092356;28;20602;-85
2023/10/13 10:06:14;;;;;;;3.28;1.52;;;20.50;79.80;;;;;;5072526;28;20594;-83
2023/10/13 10:08:56;;;;;;;2.35;1.10;;;20.60;79.20;;;;;;5082103;28;20204;-84
2023/10/13 10:12:18;;;;;;;4.68;2.20;;;20.60;79.50;;;;;;5101157;28;20214;-85
2023/10/13 10:15:13;;;;;;;2.20;1.00;;;20.60;79.70;;;;;;5086918;28;20211;-85
2023/10/13 10:17:49;;;;;;;2.35;1.15;;;20.60;79.60;;;;;;5064425;28;20283;-83
2023/10/13 10:20:39;;;;;;;2.63;1.63;;;20.60;79.50;;;;;;5077267;28;20196;-83
2023/10/13 10:23:24;;;;;;;2.55;1.10;;;20.60;80.00;;;;;;5069524;28;20213;-85
2023/10/13 10:26:07;;;;;;;1.50;1.00;;;20.40;80.10;;;;;;5055877;28;20224;-85
2023/10/13 10:28:42;;;;;;;3.00;1.50;;;20.40;80.50;;;;;;5045414;28;20215;-84
2023/10/13 10:31:17;;;;;;;1.92;0.80;;;20.50;81.20;;;;;;5062515;28;20219;-85
2023/10/13 10:34:00;;;;;;;2.92;0.77;;;20.50;80.00;;;;;;5061543;28;20201;-84
2023/10/13 10:36:48;;;;;;;1.55;0.70;;;20.40;80.50;;;;;;5062436;28;20304;-85
2023/10/13 10:39:45;;;;;;;3.70;1.17;;;20.40;80.60;;;;;;5062085;28;20279;-84
2023/10/13 10:42:23;;;;;;;1.38;0.80;;;20.50;80.40;;;;;;5062353;28;20200;-85
2023/10/13 10:45:05;;;;;;;1.95;1.15;;;20.50;81.10;;;;;;5061358;28;20222;-83
2023/10/13 10:47:40;;;;;;;2.17;1.02;;;20.40;80.80;;;;;;5056411;28;20283;-83
2023/10/13 10:50:36;;;;;;;1.65;0.50;;;20.40;80.90;;;;;;5059838;28;20199;-83
2023/10/13 10:53:12;;;;;;;1.77;0.90;;;20.40;80.80;;;;;;5049463;28;20644;-85
2023/10/13 10:55:47;;;;;;;1.77;0.90;;;20.40;81.30;;;;;;5063377;28;20224;-85
2023/10/13 10:58:30;;;;;;;1.38;0.70;;;20.30;81.90;;;;;;5064353;28;20200;-82
2023/10/13 11:01:18;;;;;;;1.38;0.68;;;20.30;81.40;;;;;;5062788;28;20195;-83
2023/10/13 11:03:59;;;;;;;0.80;0.60;;;20.20;81.90;;;;;;5055334;28;20615;-83
2023/10/13 11:06:41;;;;;;;2.33;0.90;;;20.20;82.00;;;;;;5068147;28;20202;-82
2023/10/13 11:09:31;;;;;;;0.90;0.60;;;20.20;82.20;;;;;;5067077;28;20279;-84
2023/10/13 11:12:23;;;;;;;1.42;0.50;;;20.10;82.70;;;;;;5065811;28;20219;-83
2023/10/13 11:15:13;;;;;;;2.13;0.40;;;20.00;83.20;;;;;;5067742;28;20235;-84
2023/10/13 11:17:51;;;;;;;2.67;0.60;;;20.10;83.70;;;;;;5073201;28;20231;-85
2023/10/13 11:20:33;;;;;;;1.77;0.65;;;20.10;83.60;;;;;;5062808;28;20204;-84
2023/10/13 11:23:13;;;;;;;1.33;0.68;;;20.10;83.60;;;;;;5061118;28;20232;-82
2023/10/13 11:25:45;;;;;;;2.65;0.68;;;20.10;84.40;;;;;;5073600;28;20710;-84
2023/10/13 11:28:27;;;;;;;1.45;0.77;;;20.00;85.30;;;;;;5073030;28;20275;-81
2023/10/13 11:31:45;;;;;;;1.52;0.90;;;20.00;86.00;;;;;;5096746;28;20243;-82
2023/10/13 11:34:18;;;;;;;1.90;0.75;;;20.00;86.10;;;;;;5080250;28;20567;-84
2023/10/13 11:37:14;;;;;;;2.05;0.70;;;20.10;85.90;;;;;;5065237;28;20220;-84
2023/10/13 11:42:36;;;;;;;2.55;0.73;;;20.00;86.80;;;;;;5069257;28;20208;-82
2023/10/13 11:50:56;;;;;;;1.45;0.52;;;20.00;87.30;;;;;;5067771;28;20217;-86
2023/10/13 11:53:28;;;;;;;0.82;0.50;;;20.00;87.80;;;;;;5071878;28;20200;-83
2023/10/13 11:56:08;;;;;;;1.15;0.50;;;20.00;88.60;;;;;;5083981;28;20198;-82
2023/10/13 11:59:01;;;;;;;1.63;0.75;;;20.00;89.10;;;;;;5092657;28;20171;-81
2023/10/13 12:07:27;;;;;;;0.50;0.50;;;19.80;90.30;;;;;;5072919;28;20164;-82
2023/10/13 12:10:15;;;;;;;1.90;0.70;;;19.80;90.70;;;;;;5089988;28;20375;-83
2023/10/13 12:12:54;;;;;;;0.90;0.52;;;19.80;90.80;;;;;;5087864;28;20220;-81
2023/10/13 12:15:36;;;;;;;3.22;0.68;;;19.80;91.40;;;;;;5081865;28;20307;-81
2023/10/13 12:18:19;;;;;;;2.15;0.68;;;19.80;91.50;;;;;;5083376;28;20208;-82
2023/10/13 12:20:51;;;;;;;1.67;0.60;;;19.80;91.70;;;;;;5080939;28;20221;-83
2023/10/13 12:23:31;;;;;;;23.05;1.20;;;19.80;91.60;;;;;;5078522;28;20260;-82
2023/10/13 12:26:06;;;;;;;3.42;0.70;;;19.70;91.60;;;;;;5076873;28;20574;-84
2023/10/13 12:28:50;;;;;;;2.85;0.63;;;19.70;91.60;;;;;;5077879;28;20267;-83
2023/10/13 12:31:26;;;;;;;21.67;1.10;;;19.60;91.50;;;;;;5073030;28;20203;-82
2023/10/13 12:34:14;;;;;;;3.17;0.70;;;19.50;91.50;;;;;;5068940;28;20663;-80
2023/10/13 12:36:53;;;;;;;1.30;0.60;;;19.40;91.50;;;;;;5056504;28;20387;-84
2023/10/13 12:51:07;;;;;;;1.58;0.65;;;19.30;91.60;;;;;;5072507;28;20246;-82
2023/10/13 12:53:42;;;;;;;1.40;0.60;;;19.40;91.40;;;;;;5061086;28;20286;-84
2023/10/13 12:56:14;;;;;;;1.38;0.63;;;19.40;91.30;;;;;;5075262;28;20246;-82
2023/10/13 12:58:51;;;;;;;3.60;0.93;;;19.30;91.40;;;;;;5075662;28;20195;-83
2023/10/13 13:01:32;;;;;;;2.92;0.80;;;19.30;91.60;;;;;;5068825;28;20532;-81
2023/10/13 13:04:12;;;;;;;2.53;0.60;;;19.30;91.60;;;;;;5076814;28;20192;-81
2023/10/13 13:06:53;;;;;;;2.40;0.60;;;19.20;91.90;;;;;;5075935;28;20199;-82
2023/10/13 13:09:28;;;;;;;1.55;0.50;;;19.20;92.40;;;;;;5077857;28;20219;-81
2023/10/13 13:12:21;;;;;;;3.47;0.60;;;19.10;92.60;;;;;;5077864;28;20257;-81
2023/10/13 13:15:00;;;;;;;3.13;0.70;;;19.10;92.70;;;;;;5074618;28;20242;-83
2023/10/13 13:17:32;;;;;;;10.10;0.68;;;19.10;92.90;;;;;;5070439;28;20231;-83
2023/10/13 13:20:11;;;;;;;1.10;0.65;;;19.10;93.00;;;;;;5073029;28;20192;-83
2023/10/13 13:22:45;;;;;;;1.13;0.65;;;19.10;93.30;;;;;;5057225;28;20227;-82
2023/10/13 13:25:25;;;;;;;1.80;0.60;;;19.10;93.50;;;;;;5053588;28;20200;-82
2023/10/13 13:27:58;;;;;;;3.58;0.90;;;19.10;93.60;;;;;;5065127;28;20659;-83
2023/10/13 13:30:34;;;;;;;2.97;0.73;;;19.10;93.80;;;;;;5071017;28;20934;-83
2023/10/13 13:33:10;;;;;;;1.52;0.60;;;19.10;93.80;;;;;;5071576;28;20203;-83
2023/10/13 13:35:48;;;;;;;1.13;0.40;;;19.00;94.00;;;;;;5072114;28;20199;-83
2023/10/13 13:38:27;;;;;;;2.33;0.45;;;18.90;93.90;;;;;;5070678;28;20203;-82
2023/10/13 13:41:02;;;;;;;1.75;0.55;;;18.80;94.30;;;;;;5070860;28;20690;-83
2023/10/13 13:43:50;;;;;;;1.70;0.50;;;18.80;94.70;;;;;;5070122;28;20196;-84
2023/10/13 13:46:24;;;;;;;1.65;0.50;;;18.80;94.80;;;;;;5071942;28;20632;-83
2023/10/13 13:49:00;;;;;;;2.15;0.60;;;18.80;95.20;;;;;;5072284;28;20203;-83
2023/10/13 13:51:34;;;;;;;3.25;0.50;;;18.70;95.20;;;;;;5060282;28;20204;-82
2023/10/13 13:54:11;;;;;;;2.45;0.70;;;18.70;95.20;;;;;;5062199;28;20210;-83
2023/10/13 13:56:44;;;;;;;1.60;0.50;;;18.80;95.70;;;;;;5071251;28;20219;-82
2023/10/13 13:59:19;;;;;;;1.90;0.50;;;18.70;95.90;;;;;;5076461;28;20196;-82
2023/10/13 14:01:52;;;;;;;0.95;0.38;;;18.80;95.70;;;;;;5074094;28;20202;-83
2023/10/13 14:04:24;;;;;;;3.05;0.65;;;18.70;95.70;;;;;;5080934;28;20207;-82
2023/10/13 14:06:55;;;;;;;1.58;0.40;;;18.70;95.70;;;;;;5087159;28;20192;-83
2023/10/13 14:09:40;;;;;;;1.35;0.50;;;18.70;95.90;;;;;;5073833;28;20196;-83
2023/10/13 14:12:41;;;;;;;1.10;0.40;;;18.70;96.10;;;;;;5086131;28;20200;-83
2023/10/13 14:15:23;;;;;;;1.30;0.50;;;18.70;96.20;;;;;;5075763;28;20311;-83
2023/10/13 14:17:55;;;;;;;1.48;0.40;;;18.80;96.30;;;;;;5074943;28;20235;-83
2023/10/13 14:20:29;;;;;;;0.77;0.52;;;18.70;96.60;;;;;;5075346;28;20257;-84
2023/10/13 14:23:07;;;;;;;1.55;0.63;;;18.60;97.20;;;;;;5073220;28;20212;-83
2023/10/13 14:25:51;;;;;;;1.33;0.40;;;18.50;97.30;;;;;;5062117;28;20199;-83
2023/10/13 14:28:24;;;;;;;1.25;0.55;;;18.60;96.90;;;;;;5067751;28;20278;-83
2023/10/13 14:30:58;;;;;;;2.80;0.50;;;18.50;97.00;;;;;;5074503;28;20245;-82
2023/10/13 14:33:32;;;;;;;1.20;0.55;;;18.40;97.60;;;;;;5069706;28;20211;-81
2023/10/13 14:36:05;;;;;;;1.60;0.40;;;18.40;97.60;;;;;;5073103;28;20192;-82
2023/10/13 14:38:44;;;;;;;1.15;0.40;;;18.50;97.60;;;;;;5072069;28;20215;-82
2023/10/13 14:41:21;;;;;;;1.70;0.50;;;18.50;97.50;;;;;;5062986;28;20196;-82
2023/10/13 14:43:56;;;;;;;1.00;0.47;;;18.50;97.50;;;;;;5074189;28;20191;-81
2023/10/13 14:46:31;;;;;;;2.97;0.70;;;18.50;97.50;;;;;;5073922;28;20203;-81
2023/10/13 14:49:03;;;;;;;2.10;0.43;;;18.50;97.70;;;;;;5073719;28;20291;-80
2023/10/13 14:51:45;;;;;;;1.35;0.52;;;18.50;97.40;;;;;;5073683;28;20276;-81
2023/10/13 14:54:25;;;;;;;2.05;0.70;;;18.40;97.80;;;;;;5073638;28;20223;-82
2023/10/13 14:57:10;;;;;;;4.57;0.60;;;18.50;97.80;;;;;;5053547;28;20224;-81
2023/10/13 14:59:48;;;;;;;0.80;0.50;;;18.40;97.60;;;;;;5059021;28;20195;-82
2023/10/13 15:02:27;;;;;;;2.10;0.30;;;18.40;98.00;;;;;;5072142;28;20694;-81
2023/10/13 15:05:10;;;;;;;0.65;0.30;;;18.40;98.40;;;;;;5074456;28;20289;-81
2023/10/13 15:07:46;;;;;;;2.83;0.45;;;18.40;98.10;;;;;;5061574;28;20200;-81
2023/10/13 15:10:37;;;;;;;1.08;0.40;;;18.40;98.20;;;;;;5075011;28;20210;-81
2023/10/13 15:13:16;;;;;;;0.77;0.30;;;18.40;98.30;;;;;;5081773;28;20680;-82
2023/10/13 15:15:48;;;;;;;1.08;0.30;;;18.40;98.60;;;;;;5081579;28;20230;-82
2023/10/13 15:18:23;;;;;;;1.55;0.50;;;18.30;98.70;;;;;;5078409;28;20224;-82
2023/10/13 15:20:56;;;;;;;2.95;0.43;;;18.40;99.00;;;;;;5075875;28;20200;-81
2023/10/13 15:23:31;;;;;;;2.35;0.60;;;18.40;98.90;;;;;;5074955;28;20200;-81
2023/10/13 15:26:10;;;;;;;1.63;0.57;;;18.40;99.10;;;;;;5055822;28;20225;-80
2023/10/13 15:28:53;;;;;;;0.52;0.30;;;18.40;99.40;;;;;;5057730;28;20208;-80
2023/10/13 15:31:37;;;;;;;0.90;0.63;;;18.40;99.30;;;;;;5069100;28;20198;-81
2023/10/13 15:34:17;;;;;;;1.42;0.40;;;18.30;99.70;;;;;;5080107;28;20210;-82
2023/10/13 15:36:52;;;;;;;1.30;0.40;;;18.30;99.70;;;;;;5077188;28;20192;-82
2023/10/13 15:39:28;;;;;;;0.90;0.45;;;18.40;99.90;;;;;;5077005;28;20230;-80
2023/10/13 15:42:02;;;;;;;1.52;0.63;;;18.40;99.90;;;;;;5075906;28;20200;-82
2023/10/13 15:44:42;;;;;;;1.80;0.40;;;18.40;99.70;;;;;;5076194;28;20222;-81
2023/10/13 15:47:17;;;;;;;2.15;0.50;;;18.40;99.90;;;;;;5075934;28;20202;-82
2023/10/13 15:49:50;;;;;;;2.35;0.50;;;18.40;99.90;;;;;;5075360;28;20203;-81
2023/10/13 15:52:22;;;;;;;1.13;0.40;;;18.20;99.90;;;;;;5077153;28;20196;-82
2023/10/13 15:54:57;;;;;;;0.55;0.30;;;18.20;99.90;;;;;;5075728;28;20199;-83
2023/10/13 15:57:36;;;;;;;2.65;0.47;;;18.10;99.90;;;;;;5061098;28;20244;-82
2023/10/13 16:00:25;;;;;;;1.30;0.43;;;18.10;99.90;;;;;;5074692;28;20204;-81
2023/10/13 16:02:59;;;;;;;1.77;0.50;;;18.10;99.90;;;;;;5069751;28;20279;-81
2023/10/13 16:08:48;;;;;;;1.30;0.50;;;18.10;99.90;;;;;;5112494;27;20482;-81
2023/10/13 16:11:20;;;;;;;2.05;0.60;;;18.10;99.90;;;;;;5095391;28;20225;-82
2023/10/13 16:13:54;;;;;;;2.35;0.30;;;18.00;99.90;;;;;;5096191;28;20195;-81
2023/10/13 16:16:26;;;;;;;0.93;0.50;;;18.00;99.90;;;;;;5101099;28;20203;-81
2023/10/13 16:19:04;;;;;;;1.35;0.57;;;18.00;99.90;;;;;;5098212;28;20194;-82
2023/10/13 16:21:43;;;;;;;1.25;0.50;;;18.00;99.90;;;;;;5091637;28;20203;-82